sensor_id;sensor_type;location;lat;lon;timestamp;P1;durP1;ratioP1;P2;durP2;ratioP2
4391;SDS011;2210;51.938;8.488;2023-02-28T00:00:58;8.00;;;3.33;;
4391;SDS011;2210;51.938;8.488;2023-02-28T00:04:59;6.90;;;3.90;;
4391;SDS011;2210;51.938;8.488;2023-02-28T00:09:01;6.27;;;4.77;;
4391;SDS011;2210;51.938;8.488;2023-02-28T00:13:05;7.80;;;4.60;;
4391;SDS011;2210;51.938;8.488;2023-02-28T00:17:06;9.57;;;5.40;;
4391;SDS011;2210;51.938;8.488;2023-02-28T00:21:06;5.18;;;3.08;;
4391;SDS011;2210;51.938;8.488;2023-02-28T00:25:08;4.73;;;3.03;;
4391;SDS011;2210;51.938;8.488;2023-02-28T00:29:10;4.47;;;3.00;;
4391;SDS011;2210;51.938;8.488;2023-02-28T00:33:10;2.63;;;2.42;;
4391;SDS011;2210;51.938;8.488;2023-02-28T00:37:11;3.30;;;3.00;;
4391;SDS011;2210;51.938;8.488;2023-02-28T00:41:12;6.77;;;3.47;;
4391;SDS011;2210;51.938;8.488;2023-02-28T00:45:12;4.47;;;4.00;;
4391;SDS011;2210;51.938;8.488;2023-02-28T00:49:18;4.95;;;3.80;;
4391;SDS011;2210;51.938;8.488;2023-02-28T00:53:19;5.47;;;4.03;;
4391;SDS011;2210;51.938;8.488;2023-02-28T00:57:25;3.80;;;3.50;;
4391;SDS011;2210;51.938;8.488;2023-02-28T01:01:26;5.37;;;3.37;;
4391;SDS011;2210;51.938;8.488;2023-02-28T01:05:32;3.25;;;2.72;;
4391;SDS011;2210;51.938;8.488;2023-02-28T01:09:36;3.83;;;3.07;;
4391;SDS011;2210;51.938;8.488;2023-02-28T01:13:39;3.23;;;2.93;;
4391;SDS011;2210;51.938;8.488;2023-02-28T01:17:40;4.50;;;3.10;;
4391;SDS011;2210;51.938;8.488;2023-02-28T01:21:40;4.38;;;2.70;;
4391;SDS011;2210;51.938;8.488;2023-02-28T01:25:43;2.73;;;2.23;;
4391;SDS011;2210;51.938;8.488;2023-02-28T01:29:43;2.87;;;2.40;;
4391;SDS011;2210;51.938;8.488;2023-02-28T01:33:44;3.63;;;2.22;;
4391;SDS011;2210;51.938;8.488;2023-02-28T01:37:44;3.00;;;1.90;;
4391;SDS011;2210;51.938;8.488;2023-02-28T01:41:44;2.90;;;2.50;;
4391;SDS011;2210;51.938;8.488;2023-02-28T01:45:45;2.00;;;1.90;;
4391;SDS011;2210;51.938;8.488;2023-02-28T01:49:48;2.23;;;2.13;;
4391;SDS011;2210;51.938;8.488;2023-02-28T01:53:52;2.90;;;2.20;;
4391;SDS011;2210;51.938;8.488;2023-02-28T01:58:01;2.13;;;1.90;;
4391;SDS011;2210;51.938;8.488;2023-02-28T02:02:04;2.63;;;1.60;;
4391;SDS011;2210;51.938;8.488;2023-02-28T02:06:04;1.87;;;1.60;;
4391;SDS011;2210;51.938;8.488;2023-02-28T02:18:57;1.87;;;1.77;;
4391;SDS011;2210;51.938;8.488;2023-02-28T02:23:27;1.70;;;1.60;;
4391;SDS011;2210;51.938;8.488;2023-02-28T02:36:35;2.60;;;1.83;;
4391;SDS011;2210;51.938;8.488;2023-02-28T02:45:00;2.93;;;1.90;;
4391;SDS011;2210;51.938;8.488;2023-02-28T02:49:05;2.77;;;1.77;;
4391;SDS011;2210;51.938;8.488;2023-02-28T02:53:10;1.73;;;1.63;;
4391;SDS011;2210;51.938;8.488;2023-02-28T02:57:14;1.70;;;1.60;;
4391;SDS011;2210;51.938;8.488;2023-02-28T03:01:25;2.10;;;2.00;;
4391;SDS011;2210;51.938;8.488;2023-02-28T03:05:35;2.13;;;1.80;;
4391;SDS011;2210;51.938;8.488;2023-02-28T03:09:55;8.93;;;2.10;;
4391;SDS011;2210;51.938;8.488;2023-02-28T03:14:00;4.20;;;1.90;;
4391;SDS011;2210;51.938;8.488;2023-02-28T03:18:10;6.70;;;2.47;;
4391;SDS011;2210;51.938;8.488;2023-02-28T03:26:42;2.20;;;2.03;;
4391;SDS011;2210;51.938;8.488;2023-02-28T03:30:54;2.53;;;1.90;;
4391;SDS011;2210;51.938;8.488;2023-02-28T03:35:03;2.00;;;1.80;;
4391;SDS011;2210;51.938;8.488;2023-02-28T03:39:12;2.17;;;1.97;;
4391;SDS011;2210;51.938;8.488;2023-02-28T03:43:23;3.23;;;1.90;;
4391;SDS011;2210;51.938;8.488;2023-02-28T03:47:32;1.97;;;1.87;;
4391;SDS011;2210;51.938;8.488;2023-02-28T03:51:39;3.00;;;2.30;;
4391;SDS011;2210;51.938;8.488;2023-02-28T03:55:47;2.33;;;1.97;;
4391;SDS011;2210;51.938;8.488;2023-02-28T03:59:53;1.60;;;1.50;;
4391;SDS011;2210;51.938;8.488;2023-02-28T04:03:57;2.07;;;1.80;;
4391;SDS011;2210;51.938;8.488;2023-02-28T04:08:07;2.10;;;1.70;;
4391;SDS011;2210;51.938;8.488;2023-02-28T04:12:08;1.60;;;1.50;;
4391;SDS011;2210;51.938;8.488;2023-02-28T04:16:09;3.90;;;1.57;;
4391;SDS011;2210;51.938;8.488;2023-02-28T04:20:13;1.77;;;1.67;;
4391;SDS011;2210;51.938;8.488;2023-02-28T04:24:14;2.13;;;1.73;;
4391;SDS011;2210;51.938;8.488;2023-02-28T04:28:17;2.07;;;1.90;;
4391;SDS011;2210;51.938;8.488;2023-02-28T04:32:19;1.80;;;1.53;;
4391;SDS011;2210;51.938;8.488;2023-02-28T04:36:45;1.50;;;1.40;;
4391;SDS011;2210;51.938;8.488;2023-02-28T04:40:49;1.93;;;1.63;;
4391;SDS011;2210;51.938;8.488;2023-02-28T04:44:55;2.07;;;1.77;;
4391;SDS011;2210;51.938;8.488;2023-02-28T04:49:01;1.90;;;1.80;;
4391;SDS011;2210;51.938;8.488;2023-02-28T04:53:05;2.20;;;1.50;;
4391;SDS011;2210;51.938;8.488;2023-02-28T04:57:09;2.40;;;2.10;;
4391;SDS011;2210;51.938;8.488;2023-02-28T05:01:16;1.67;;;1.50;;
4391;SDS011;2210;51.938;8.488;2023-02-28T05:05:19;1.70;;;1.60;;
4391;SDS011;2210;51.938;8.488;2023-02-28T05:09:28;2.40;;;1.60;;
4391;SDS011;2210;51.938;8.488;2023-02-28T05:13:29;2.63;;;1.70;;
4391;SDS011;2210;51.938;8.488;2023-02-28T05:17:29;6.20;;;1.43;;
4391;SDS011;2210;51.938;8.488;2023-02-28T05:21:48;1.87;;;1.60;;
4391;SDS011;2210;51.938;8.488;2023-02-28T05:25:50;4.03;;;2.03;;
4391;SDS011;2210;51.938;8.488;2023-02-28T05:30:05;2.90;;;2.30;;
4391;SDS011;2210;51.938;8.488;2023-02-28T05:34:09;3.93;;;2.27;;
4391;SDS011;2210;51.938;8.488;2023-02-28T05:38:15;2.53;;;2.33;;
4391;SDS011;2210;51.938;8.488;2023-02-28T05:42:18;3.23;;;2.10;;
4391;SDS011;2210;51.938;8.488;2023-02-28T05:46:34;2.70;;;2.17;;
4391;SDS011;2210;51.938;8.488;2023-02-28T05:50:40;2.20;;;2.00;;
4391;SDS011;2210;51.938;8.488;2023-02-28T05:54:42;1.93;;;1.73;;
4391;SDS011;2210;51.938;8.488;2023-02-28T05:58:57;2.63;;;2.43;;
4391;SDS011;2210;51.938;8.488;2023-02-28T06:03:04;2.90;;;2.00;;
4391;SDS011;2210;51.938;8.488;2023-02-28T06:07:04;2.50;;;2.30;;
4391;SDS011;2210;51.938;8.488;2023-02-28T06:11:10;3.45;;;2.83;;
4391;SDS011;2210;51.938;8.488;2023-02-28T06:15:14;4.63;;;1.90;;
4391;SDS011;2210;51.938;8.488;2023-02-28T06:19:18;2.20;;;1.93;;
4391;SDS011;2210;51.938;8.488;2023-02-28T06:23:18;2.73;;;2.40;;
4391;SDS011;2210;51.938;8.488;2023-02-28T06:27:34;3.03;;;2.70;;
4391;SDS011;2210;51.938;8.488;2023-02-28T06:31:44;2.67;;;2.47;;
4391;SDS011;2210;51.938;8.488;2023-02-28T06:35:46;3.53;;;2.60;;
4391;SDS011;2210;51.938;8.488;2023-02-28T06:39:50;2.60;;;2.27;;
4391;SDS011;2210;51.938;8.488;2023-02-28T06:43:50;2.90;;;2.30;;
4391;SDS011;2210;51.938;8.488;2023-02-28T06:52:10;3.90;;;2.97;;
4391;SDS011;2210;51.938;8.488;2023-02-28T06:56:11;4.30;;;3.30;;
4391;SDS011;2210;51.938;8.488;2023-02-28T07:00:14;5.60;;;3.80;;
4391;SDS011;2210;51.938;8.488;2023-02-28T07:04:14;6.43;;;4.20;;
4391;SDS011;2210;51.938;8.488;2023-02-28T07:08:15;4.43;;;4.03;;
4391;SDS011;2210;51.938;8.488;2023-02-28T07:12:15;3.33;;;3.00;;
4391;SDS011;2210;51.938;8.488;2023-02-28T07:16:16;4.10;;;3.20;;
4391;SDS011;2210;51.938;8.488;2023-02-28T07:20:16;4.20;;;3.67;;
4391;SDS011;2210;51.938;8.488;2023-02-28T07:24:17;3.33;;;2.80;;
4391;SDS011;2210;51.938;8.488;2023-02-28T07:28:26;3.80;;;3.50;;
4391;SDS011;2210;51.938;8.488;2023-02-28T07:32:30;3.67;;;3.37;;
4391;SDS011;2210;51.938;8.488;2023-02-28T07:36:37;5.53;;;3.20;;
4391;SDS011;2210;51.938;8.488;2023-02-28T07:40:40;3.97;;;3.57;;
4391;SDS011;2210;51.938;8.488;2023-02-28T07:44:40;5.07;;;3.13;;
4391;SDS011;2210;51.938;8.488;2023-02-28T07:48:47;2.97;;;2.30;;
4391;SDS011;2210;51.938;8.488;2023-02-28T07:52:47;3.80;;;3.03;;
4391;SDS011;2210;51.938;8.488;2023-02-28T07:56:50;8.02;;;2.90;;
4391;SDS011;2210;51.938;8.488;2023-02-28T08:00:53;2.70;;;2.50;;
4391;SDS011;2210;51.938;8.488;2023-02-28T08:05:00;3.33;;;3.03;;
4391;SDS011;2210;51.938;8.488;2023-02-28T08:09:04;2.00;;;1.90;;
4391;SDS011;2210;51.938;8.488;2023-02-28T08:17:27;3.30;;;1.60;;
4391;SDS011;2210;51.938;8.488;2023-02-28T08:21:33;1.83;;;1.53;;
4391;SDS011;2210;51.938;8.488;2023-02-28T08:25:33;1.10;;;1.10;;
4391;SDS011;2210;51.938;8.488;2023-02-28T08:29:37;1.60;;;1.50;;
4391;SDS011;2210;51.938;8.488;2023-02-28T08:33:44;1.17;;;1.07;;
4391;SDS011;2210;51.938;8.488;2023-02-28T08:37:48;1.67;;;1.10;;
4391;SDS011;2210;51.938;8.488;2023-02-28T08:41:52;1.03;;;0.77;;
4391;SDS011;2210;51.938;8.488;2023-02-28T08:45:58;1.27;;;1.03;;
4391;SDS011;2210;51.938;8.488;2023-02-28T08:49:58;1.10;;;0.87;;
4391;SDS011;2210;51.938;8.488;2023-02-28T08:54:02;1.38;;;1.00;;
4391;SDS011;2210;51.938;8.488;2023-02-28T08:58:02;0.90;;;0.90;;
4391;SDS011;2210;51.938;8.488;2023-02-28T09:02:02;1.80;;;0.97;;
4391;SDS011;2210;51.938;8.488;2023-02-28T09:06:03;3.43;;;1.10;;
4391;SDS011;2210;51.938;8.488;2023-02-28T09:10:04;1.23;;;1.10;;
4391;SDS011;2210;51.938;8.488;2023-02-28T09:14:05;1.77;;;1.00;;
4391;SDS011;2210;51.938;8.488;2023-02-28T09:18:05;0.65;;;0.65;;
4391;SDS011;2210;51.938;8.488;2023-02-28T09:22:05;1.50;;;1.40;;
4391;SDS011;2210;51.938;8.488;2023-02-28T09:26:06;0.82;;;0.80;;
4391;SDS011;2210;51.938;8.488;2023-02-28T09:30:07;1.30;;;0.90;;
4391;SDS011;2210;51.938;8.488;2023-02-28T09:34:10;0.97;;;0.97;;
4391;SDS011;2210;51.938;8.488;2023-02-28T09:38:11;1.47;;;1.00;;
4391;SDS011;2210;51.938;8.488;2023-02-28T09:42:14;1.83;;;1.37;;
4391;SDS011;2210;51.938;8.488;2023-02-28T09:46:41;1.80;;;1.40;;
4391;SDS011;2210;51.938;8.488;2023-02-28T09:50:48;2.67;;;1.70;;
4391;SDS011;2210;51.938;8.488;2023-02-28T09:54:54;1.53;;;1.10;;
4391;SDS011;2210;51.938;8.488;2023-02-28T09:58:56;1.50;;;1.33;;
4391;SDS011;2210;51.938;8.488;2023-02-28T10:12:13;1.00;;;1.00;;
4391;SDS011;2210;51.938;8.488;2023-02-28T10:16:29;1.83;;;1.20;;
4391;SDS011;2210;51.938;8.488;2023-02-28T10:20:41;1.20;;;1.20;;
4391;SDS011;2210;51.938;8.488;2023-02-28T10:24:53;1.63;;;1.50;;
4391;SDS011;2210;51.938;8.488;2023-02-28T10:29:07;1.27;;;1.17;;
4391;SDS011;2210;51.938;8.488;2023-02-28T10:33:14;1.73;;;1.20;;
4391;SDS011;2210;51.938;8.488;2023-02-28T10:37:19;1.53;;;1.30;;
4391;SDS011;2210;51.938;8.488;2023-02-28T10:41:27;1.17;;;1.10;;
4391;SDS011;2210;51.938;8.488;2023-02-28T10:45:30;1.10;;;1.10;;
4391;SDS011;2210;51.938;8.488;2023-02-28T10:49:33;2.00;;;1.10;;
4391;SDS011;2210;51.938;8.488;2023-02-28T10:53:38;2.47;;;1.60;;
4391;SDS011;2210;51.938;8.488;2023-02-28T10:57:51;1.93;;;1.30;;
4391;SDS011;2210;51.938;8.488;2023-02-28T11:01:55;2.03;;;1.33;;
4391;SDS011;2210;51.938;8.488;2023-02-28T11:05:55;1.13;;;1.13;;
4391;SDS011;2210;51.938;8.488;2023-02-28T11:10:06;1.53;;;1.43;;
4391;SDS011;2210;51.938;8.488;2023-02-28T11:14:22;1.20;;;0.93;;
4391;SDS011;2210;51.938;8.488;2023-02-28T11:23:00;1.10;;;0.90;;
4391;SDS011;2210;51.938;8.488;2023-02-28T11:27:15;1.00;;;1.00;;
4391;SDS011;2210;51.938;8.488;2023-02-28T11:31:28;0.83;;;0.83;;
4391;SDS011;2210;51.938;8.488;2023-02-28T11:39:32;1.80;;;0.90;;
4391;SDS011;2210;51.938;8.488;2023-02-28T11:48:01;3.00;;;0.80;;
4391;SDS011;2210;51.938;8.488;2023-02-28T11:52:20;1.67;;;1.00;;
4391;SDS011;2210;51.938;8.488;2023-02-28T11:56:53;1.53;;;0.90;;
4391;SDS011;2210;51.938;8.488;2023-02-28T12:01:01;1.20;;;1.10;;
4391;SDS011;2210;51.938;8.488;2023-02-28T12:10:04;2.27;;;1.60;;
4391;SDS011;2210;51.938;8.488;2023-02-28T12:14:30;1.77;;;1.40;;
4391;SDS011;2210;51.938;8.488;2023-02-28T12:27:45;1.40;;;1.30;;
4391;SDS011;2210;51.938;8.488;2023-02-28T12:36:14;2.70;;;1.20;;
4391;SDS011;2210;51.938;8.488;2023-02-28T12:40:20;1.50;;;1.20;;
4391;SDS011;2210;51.938;8.488;2023-02-28T12:44:39;1.57;;;1.47;;
4391;SDS011;2210;51.938;8.488;2023-02-28T12:49:16;1.50;;;1.40;;
4391;SDS011;2210;51.938;8.488;2023-02-28T12:53:44;1.80;;;1.57;;
4391;SDS011;2210;51.938;8.488;2023-02-28T12:57:52;1.40;;;1.30;;
4391;SDS011;2210;51.938;8.488;2023-02-28T13:07:10;1.80;;;1.23;;
4391;SDS011;2210;51.938;8.488;2023-02-28T13:11:29;1.13;;;1.10;;
4391;SDS011;2210;51.938;8.488;2023-02-28T13:15:35;1.50;;;1.40;;
4391;SDS011;2210;51.938;8.488;2023-02-28T13:27:58;5.80;;;1.30;;
4391;SDS011;2210;51.938;8.488;2023-02-28T13:36:36;1.30;;;1.20;;
4391;SDS011;2210;51.938;8.488;2023-02-28T13:40:39;1.73;;;1.53;;
4391;SDS011;2210;51.938;8.488;2023-02-28T13:53:40;1.50;;;1.40;;
4391;SDS011;2210;51.938;8.488;2023-02-28T13:58:01;1.40;;;1.30;;
4391;SDS011;2210;51.938;8.488;2023-02-28T14:07:06;3.07;;;1.30;;
4391;SDS011;2210;51.938;8.488;2023-02-28T14:11:23;1.70;;;1.50;;
4391;SDS011;2210;51.938;8.488;2023-02-28T14:24:19;2.00;;;1.80;;
4391;SDS011;2210;51.938;8.488;2023-02-28T14:37:41;3.87;;;1.60;;
4391;SDS011;2210;51.938;8.488;2023-02-28T14:41:43;2.10;;;1.67;;
4391;SDS011;2210;51.938;8.488;2023-02-28T14:45:48;2.30;;;1.50;;
4391;SDS011;2210;51.938;8.488;2023-02-28T14:49:54;1.83;;;1.60;;
4391;SDS011;2210;51.938;8.488;2023-02-28T14:53:59;1.70;;;1.60;;
4391;SDS011;2210;51.938;8.488;2023-02-28T14:58:05;2.10;;;1.60;;
4391;SDS011;2210;51.938;8.488;2023-02-28T15:06:39;2.00;;;1.90;;
4391;SDS011;2210;51.938;8.488;2023-02-28T15:10:45;2.13;;;1.93;;
4391;SDS011;2210;51.938;8.488;2023-02-28T15:14:54;3.13;;;1.80;;
4391;SDS011;2210;51.938;8.488;2023-02-28T15:19:02;1.80;;;1.70;;
4391;SDS011;2210;51.938;8.488;2023-02-28T15:23:14;2.10;;;1.90;;
4391;SDS011;2210;51.938;8.488;2023-02-28T15:27:18;2.40;;;1.50;;
4391;SDS011;2210;51.938;8.488;2023-02-28T15:31:23;1.80;;;1.70;;
4391;SDS011;2210;51.938;8.488;2023-02-28T15:35:29;2.40;;;1.50;;
4391;SDS011;2210;51.938;8.488;2023-02-28T15:39:31;1.90;;;1.80;;
4391;SDS011;2210;51.938;8.488;2023-02-28T15:43:44;1.70;;;1.60;;
4391;SDS011;2210;51.938;8.488;2023-02-28T15:47:47;1.63;;;1.53;;
4391;SDS011;2210;51.938;8.488;2023-02-28T15:51:51;1.53;;;1.43;;
4391;SDS011;2210;51.938;8.488;2023-02-28T15:55:58;2.03;;;1.63;;
4391;SDS011;2210;51.938;8.488;2023-02-28T16:00:06;2.40;;;1.60;;
4391;SDS011;2210;51.938;8.488;2023-02-28T16:08:19;2.13;;;1.83;;
4391;SDS011;2210;51.938;8.488;2023-02-28T16:12:20;2.42;;;1.70;;
4391;SDS011;2210;51.938;8.488;2023-02-28T16:16:23;1.70;;;1.53;;
4391;SDS011;2210;51.938;8.488;2023-02-28T16:20:25;1.73;;;1.57;;
4391;SDS011;2210;51.938;8.488;2023-02-28T16:24:45;4.07;;;1.80;;
4391;SDS011;2210;51.938;8.488;2023-02-28T16:28:46;1.83;;;1.73;;
4391;SDS011;2210;51.938;8.488;2023-02-28T16:32:46;1.90;;;1.57;;
4391;SDS011;2210;51.938;8.488;2023-02-28T16:36:52;3.23;;;1.93;;
4391;SDS011;2210;51.938;8.488;2023-02-28T16:40:53;2.57;;;2.20;;
4391;SDS011;2210;51.938;8.488;2023-02-28T16:44:55;8.43;;;2.27;;
4391;SDS011;2210;51.938;8.488;2023-02-28T16:49:02;7.03;;;2.17;;
4391;SDS011;2210;51.938;8.488;2023-02-28T16:53:05;2.03;;;1.87;;
4391;SDS011;2210;51.938;8.488;2023-02-28T16:57:05;4.40;;;2.43;;
4391;SDS011;2210;51.938;8.488;2023-02-28T17:01:06;2.83;;;2.37;;
4391;SDS011;2210;51.938;8.488;2023-02-28T17:05:08;3.55;;;2.15;;
4391;SDS011;2210;51.938;8.488;2023-02-28T17:09:16;4.17;;;2.17;;
4391;SDS011;2210;51.938;8.488;2023-02-28T17:13:27;2.37;;;2.17;;
4391;SDS011;2210;51.938;8.488;2023-02-28T17:17:27;2.63;;;2.43;;
4391;SDS011;2210;51.938;8.488;2023-02-28T17:21:29;2.47;;;2.27;;
4391;SDS011;2210;51.938;8.488;2023-02-28T17:25:33;3.27;;;2.70;;
4391;SDS011;2210;51.938;8.488;2023-02-28T17:29:36;3.00;;;2.70;;
4391;SDS011;2210;51.938;8.488;2023-02-28T17:33:43;3.07;;;2.77;;
4391;SDS011;2210;51.938;8.488;2023-02-28T17:37:43;2.60;;;2.40;;
4391;SDS011;2210;51.938;8.488;2023-02-28T17:41:56;3.27;;;2.87;;
4391;SDS011;2210;51.938;8.488;2023-02-28T17:46:06;3.90;;;3.60;;
4391;SDS011;2210;51.938;8.488;2023-02-28T17:50:15;4.53;;;3.77;;
4391;SDS011;2210;51.938;8.488;2023-02-28T17:54:21;4.80;;;3.50;;
4391;SDS011;2210;51.938;8.488;2023-02-28T17:58:25;3.80;;;3.33;;
4391;SDS011;2210;51.938;8.488;2023-02-28T18:02:37;3.90;;;3.50;;
4391;SDS011;2210;51.938;8.488;2023-02-28T18:06:40;5.20;;;3.97;;
4391;SDS011;2210;51.938;8.488;2023-02-28T18:10:50;4.23;;;3.27;;
4391;SDS011;2210;51.938;8.488;2023-02-28T18:14:56;3.50;;;3.20;;
4391;SDS011;2210;51.938;8.488;2023-02-28T18:19:06;4.90;;;4.37;;
4391;SDS011;2210;51.938;8.488;2023-02-28T18:23:20;4.00;;;3.60;;
4391;SDS011;2210;51.938;8.488;2023-02-28T18:27:33;4.13;;;3.50;;
4391;SDS011;2210;51.938;8.488;2023-02-28T18:31:34;3.10;;;2.73;;
4391;SDS011;2210;51.938;8.488;2023-02-28T18:35:34;3.23;;;2.53;;
4391;SDS011;2210;51.938;8.488;2023-02-28T18:39:41;4.07;;;2.87;;
4391;SDS011;2210;51.938;8.488;2023-02-28T18:43:51;4.50;;;3.13;;
4391;SDS011;2210;51.938;8.488;2023-02-28T18:47:53;3.47;;;3.00;;
4391;SDS011;2210;51.938;8.488;2023-02-28T18:51:56;4.13;;;3.73;;
4391;SDS011;2210;51.938;8.488;2023-02-28T18:56:04;4.30;;;3.90;;
4391;SDS011;2210;51.938;8.488;2023-02-28T19:00:06;3.90;;;3.50;;
4391;SDS011;2210;51.938;8.488;2023-02-28T19:04:07;3.70;;;3.40;;
4391;SDS011;2210;51.938;8.488;2023-02-28T19:08:12;4.77;;;3.97;;
4391;SDS011;2210;51.938;8.488;2023-02-28T19:12:15;3.37;;;3.17;;
4391;SDS011;2210;51.938;8.488;2023-02-28T19:16:25;5.47;;;3.47;;
4391;SDS011;2210;51.938;8.488;2023-02-28T19:20:38;4.80;;;3.20;;
4391;SDS011;2210;51.938;8.488;2023-02-28T19:24:38;3.23;;;2.93;;
4391;SDS011;2210;51.938;8.488;2023-02-28T19:28:39;3.83;;;3.43;;
4391;SDS011;2210;51.938;8.488;2023-02-28T19:32:57;4.80;;;4.00;;
4391;SDS011;2210;51.938;8.488;2023-02-28T19:36:58;6.60;;;4.47;;
4391;SDS011;2210;51.938;8.488;2023-02-28T19:41:05;4.00;;;3.60;;
4391;SDS011;2210;51.938;8.488;2023-02-28T19:45:09;4.97;;;4.03;;
4391;SDS011;2210;51.938;8.488;2023-02-28T19:49:16;6.37;;;4.30;;
4391;SDS011;2210;51.938;8.488;2023-02-28T19:53:17;10.60;;;7.10;;
4391;SDS011;2210;51.938;8.488;2023-02-28T19:57:17;8.30;;;6.40;;
4391;SDS011;2210;51.938;8.488;2023-02-28T20:01:18;9.47;;;6.37;;
4391;SDS011;2210;51.938;8.488;2023-02-28T20:05:25;8.30;;;5.83;;
4391;SDS011;2210;51.938;8.488;2023-02-28T20:09:34;7.03;;;5.83;;
4391;SDS011;2210;51.938;8.488;2023-02-28T20:13:34;10.00;;;7.60;;
4391;SDS011;2210;51.938;8.488;2023-02-28T20:17:38;5.03;;;4.43;;
4391;SDS011;2210;51.938;8.488;2023-02-28T20:21:56;4.23;;;3.80;;
4391;SDS011;2210;51.938;8.488;2023-02-28T20:26:02;5.17;;;4.27;;
4391;SDS011;2210;51.938;8.488;2023-02-28T20:30:06;5.03;;;4.20;;
4391;SDS011;2210;51.938;8.488;2023-02-28T20:34:07;3.40;;;3.10;;
4391;SDS011;2210;51.938;8.488;2023-02-28T20:38:07;4.60;;;3.63;;
4391;SDS011;2210;51.938;8.488;2023-02-28T20:42:11;3.37;;;3.03;;
4391;SDS011;2210;51.938;8.488;2023-02-28T20:46:11;4.73;;;3.90;;
4391;SDS011;2210;51.938;8.488;2023-02-28T20:50:15;4.33;;;3.60;;
4391;SDS011;2210;51.938;8.488;2023-02-28T20:54:16;6.03;;;5.10;;
4391;SDS011;2210;51.938;8.488;2023-02-28T20:58:16;11.50;;;6.27;;
4391;SDS011;2210;51.938;8.488;2023-02-28T21:02:19;9.32;;;7.57;;
4391;SDS011;2210;51.938;8.488;2023-02-28T21:06:22;7.83;;;6.50;;
4391;SDS011;2210;51.938;8.488;2023-02-28T21:10:26;9.33;;;5.93;;
4391;SDS011;2210;51.938;8.488;2023-02-28T21:14:26;7.17;;;5.63;;
4391;SDS011;2210;51.938;8.488;2023-02-28T21:18:27;7.73;;;5.70;;
4391;SDS011;2210;51.938;8.488;2023-02-28T21:22:27;5.75;;;5.22;;
4391;SDS011;2210;51.938;8.488;2023-02-28T21:26:30;7.33;;;4.87;;
4391;SDS011;2210;51.938;8.488;2023-02-28T21:30:31;5.90;;;4.90;;
4391;SDS011;2210;51.938;8.488;2023-02-28T21:34:32;4.20;;;3.80;;
4391;SDS011;2210;51.938;8.488;2023-02-28T21:38:32;5.50;;;5.00;;
4391;SDS011;2210;51.938;8.488;2023-02-28T21:42:33;5.40;;;4.80;;
4391;SDS011;2210;51.938;8.488;2023-02-28T21:46:33;6.20;;;5.47;;
4391;SDS011;2210;51.938;8.488;2023-02-28T21:50:34;5.22;;;4.72;;
4391;SDS011;2210;51.938;8.488;2023-02-28T21:54:34;6.25;;;5.65;;
4391;SDS011;2210;51.938;8.488;2023-02-28T22:03:12;5.70;;;5.20;;
4391;SDS011;2210;51.938;8.488;2023-02-28T22:07:12;5.90;;;5.17;;
4391;SDS011;2210;51.938;8.488;2023-02-28T22:11:16;7.70;;;4.97;;
4391;SDS011;2210;51.938;8.488;2023-02-28T22:15:26;6.93;;;5.67;;
4391;SDS011;2210;51.938;8.488;2023-02-28T22:19:32;6.57;;;5.57;;
4391;SDS011;2210;51.938;8.488;2023-02-28T22:23:38;7.90;;;5.60;;
4391;SDS011;2210;51.938;8.488;2023-02-28T22:27:39;8.63;;;5.17;;
4391;SDS011;2210;51.938;8.488;2023-02-28T22:31:45;6.57;;;5.40;;
4391;SDS011;2210;51.938;8.488;2023-02-28T22:35:49;5.53;;;4.83;;
4391;SDS011;2210;51.938;8.488;2023-02-28T22:39:55;5.33;;;4.43;;
4391;SDS011;2210;51.938;8.488;2023-02-28T22:43:57;5.10;;;4.33;;
4391;SDS011;2210;51.938;8.488;2023-02-28T22:48:11;5.30;;;4.67;;
4391;SDS011;2210;51.938;8.488;2023-02-28T22:52:12;6.07;;;5.47;;
4391;SDS011;2210;51.938;8.488;2023-02-28T22:56:19;5.50;;;4.90;;
4391;SDS011;2210;51.938;8.488;2023-02-28T23:00:23;6.13;;;5.00;;
4391;SDS011;2210;51.938;8.488;2023-02-28T23:04:27;5.07;;;4.53;;
4391;SDS011;2210;51.938;8.488;2023-02-28T23:08:33;6.47;;;4.90;;
4391;SDS011;2210;51.938;8.488;2023-02-28T23:12:36;5.30;;;4.90;;
4391;SDS011;2210;51.938;8.488;2023-02-28T23:16:41;5.30;;;4.60;;
4391;SDS011;2210;51.938;8.488;2023-02-28T23:20:49;6.30;;;4.63;;
4391;SDS011;2210;51.938;8.488;2023-02-28T23:24:49;5.40;;;4.90;;
4391;SDS011;2210;51.938;8.488;2023-02-28T23:28:53;6.75;;;4.82;;
4391;SDS011;2210;51.938;8.488;2023-02-28T23:32:53;7.17;;;4.43;;
4391;SDS011;2210;51.938;8.488;2023-02-28T23:36:54;4.90;;;3.93;;
4391;SDS011;2210;51.938;8.488;2023-02-28T23:40:56;4.20;;;3.80;;
4391;SDS011;2210;51.938;8.488;2023-02-28T23:44:56;4.30;;;3.85;;
4391;SDS011;2210;51.938;8.488;2023-02-28T23:48:57;5.37;;;4.50;;
4391;SDS011;2210;51.938;8.488;2023-02-28T23:53:00;3.70;;;3.40;;
4391;SDS011;2210;51.938;8.488;2023-02-28T23:57:01;5.93;;;4.77;;
